Time;durP1;ratioP1;P1;durP2;ratioP2;P2;SDS_P1;SDS_P2;PMS_P1;PMS_P2;Temp;Humidity;BMP_temperature;BMP_pressure;BME280_temperature;BME280_humidity;BME280_pressure;Samples;Min_cycle;Max_cycle;Signal;HPM_P1;HPM_P2
2021/12/04 00:00:33;;;;;;;11.27;5.38;;;;;;;;;;5098458;28;20649;-64
2021/12/04 00:03:01;;;;;;;6.78;4.80;;;;;;;;;;5101965;28;20193;-63
2021/12/04 00:05:28;;;;;;;5.60;4.28;;;;;;;;;;5095350;28;20201;-63
2021/12/04 00:07:56;;;;;;;9.25;4.57;;;;;;;;;;5095261;28;20197;-64
2021/12/04 00:10:27;;;;;;;11.02;5.53;;;;;;;;;;5094477;28;20197;-63
2021/12/04 00:12:55;;;;;;;11.15;6.18;;;;;;;;;;5095092;28;20233;-63
2021/12/04 00:15:23;;;;;;;7.13;5.95;;;;;;;;;;5094736;28;20221;-64
2021/12/04 00:17:51;;;;;;;5.85;4.45;;;;;;;;;;5094847;28;20251;-64
2021/12/04 00:20:27;;;;;;;8.35;5.35;;;;;;;;;;5094769;28;20548;-64
2021/12/04 00:22:58;;;;;;;8.45;5.35;;;;;;;;;;5094936;28;20266;-64
2021/12/04 00:25:25;;;;;;;9.43;6.05;;;;;;;;;;5093833;28;20713;-64
2021/12/04 00:27:53;;;;;;;11.27;5.90;;;;;;;;;;5094776;28;20280;-64
2021/12/04 00:30:21;;;;;;;8.52;5.80;;;;;;;;;;5094036;28;20562;-64
2021/12/04 00:32:59;;;;;;;6.80;4.75;;;;;;;;;;5094600;28;20726;-63
2021/12/04 00:35:43;;;;;;;9.05;6.38;;;;;;;;;;5093103;28;20192;-65
2021/12/04 00:49:12;;;;;;;6.03;4.53;;;;;;;;;;5094469;28;20600;-64
2021/12/04 00:51:43;;;;;;;7.95;5.03;;;;;;;;;;5103137;28;20239;-63
2021/12/04 00:54:12;;;;;;;7.15;4.28;;;;;;;;;;5114483;28;20184;-64
2021/12/04 00:56:40;;;;;;;7.88;4.25;;;;;;;;;;5114566;28;20197;-63
2021/12/04 00:59:08;;;;;;;7.72;5.05;;;;;;;;;;5114443;28;20203;-64
2021/12/04 01:01:36;;;;;;;8.90;4.78;;;;;;;;;;5114308;28;20203;-64
2021/12/04 01:04:03;;;;;;;8.30;4.88;;;;;;;;;;5114601;28;20288;-64
2021/12/04 01:06:36;;;;;;;7.60;5.13;;;;;;;;;;5113682;28;20181;-64
2021/12/04 01:09:05;;;;;;;9.70;5.32;;;;;;;;;;5114084;28;20212;-63
2021/12/04 01:11:33;;;;;;;7.65;4.78;;;;;;;;;;5113891;28;20213;-64
2021/12/04 01:14:04;;;;;;;8.43;4.43;;;;;;;;;;5113205;28;20189;-64
2021/12/04 01:16:34;;;;;;;8.02;5.25;;;;;;;;;;5113682;28;20586;-64
2021/12/04 01:19:02;;;;;;;5.78;4.65;;;;;;;;;;5113387;28;20188;-64
2021/12/04 01:21:29;;;;;;;7.70;5.43;;;;;;;;;;5113632;28;20234;-64
2021/12/04 01:23:58;;;;;;;8.27;5.50;;;;;;;;;;5113690;28;20196;-64
2021/12/04 01:26:26;;;;;;;7.85;4.75;;;;;;;;;;5113591;28;20188;-64
2021/12/04 01:28:54;;;;;;;6.18;4.05;;;;;;;;;;5113743;28;20252;-64
2021/12/04 01:31:23;;;;;;;10.82;5.30;;;;;;;;;;5113486;28;20262;-64
2021/12/04 01:33:51;;;;;;;6.32;4.63;;;;;;;;;;5113491;28;20276;-64
2021/12/04 01:36:18;;;;;;;6.80;5.13;;;;;;;;;;5113860;28;20197;-64
2021/12/04 01:38:46;;;;;;;7.25;4.90;;;;;;;;;;5113327;28;20692;-64
2021/12/04 01:41:14;;;;;;;7.80;4.53;;;;;;;;;;5113543;28;20196;-64
2021/12/04 01:43:42;;;;;;;10.32;5.05;;;;;;;;;;5113320;28;20268;-64
2021/12/04 01:46:10;;;;;;;6.97;4.40;;;;;;;;;;5113507;28;20192;-64
2021/12/04 01:48:38;;;;;;;7.75;4.97;;;;;;;;;;5112714;28;20267;-63
2021/12/04 01:51:05;;;;;;;8.95;4.72;;;;;;;;;;5113008;28;20714;-63
2021/12/04 01:53:33;;;;;;;6.68;4.28;;;;;;;;;;5113075;28;20223;-64
2021/12/04 01:56:02;;;;;;;6.53;3.65;;;;;;;;;;5112883;28;20587;-64
2021/12/04 01:58:31;;;;;;;5.15;4.40;;;;;;;;;;5113236;28;20267;-63
2021/12/04 02:00:59;;;;;;;7.03;4.03;;;;;;;;;;5112735;28;20243;-63
2021/12/04 02:03:27;;;;;;;6.43;4.03;;;;;;;;;;5113124;28;20193;-63
2021/12/04 02:05:55;;;;;;;7.10;4.13;;;;;;;;;;5112772;28;20192;-63
2021/12/04 02:08:23;;;;;;;9.73;5.15;;;;;;;;;;5113025;28;20203;-63
2021/12/04 02:10:53;;;;;;;8.93;5.10;;;;;;;;;;5112766;28;20180;-64
2021/12/04 02:13:21;;;;;;;11.35;4.20;;;;;;;;;;5112951;28;20224;-65
2021/12/04 02:15:50;;;;;;;7.72;4.88;;;;;;;;;;5112622;28;20184;-64
2021/12/04 02:18:19;;;;;;;6.97;4.72;;;;;;;;;;5112591;28;20696;-64
2021/12/04 02:20:49;;;;;;;6.15;4.40;;;;;;;;;;5112615;28;20241;-64
2021/12/04 02:23:17;;;;;;;8.75;4.65;;;;;;;;;;5112766;28;20185;-64
2021/12/04 02:25:45;;;;;;;6.47;4.40;;;;;;;;;;5111882;28;20195;-64
2021/12/04 02:28:15;;;;;;;6.18;4.80;;;;;;;;;;5112489;28;20181;-64
2021/12/04 02:30:45;;;;;;;5.80;4.07;;;;;;;;;;5112519;28;20801;-64
2021/12/04 02:33:16;;;;;;;6.40;4.03;;;;;;;;;;5112489;28;20217;-64
2021/12/04 02:35:45;;;;;;;7.30;4.65;;;;;;;;;;5112685;28;20198;-64
2021/12/04 02:38:29;;;;;;;5.80;4.70;;;;;;;;;;5112597;28;20655;-63
2021/12/04 02:41:00;;;;;;;8.70;5.00;;;;;;;;;;5113277;28;20292;-64
2021/12/04 02:43:27;;;;;;;9.07;4.30;;;;;;;;;;5112373;28;20273;-64
2021/12/04 02:45:55;;;;;;;10.30;4.57;;;;;;;;;;5112449;28;20200;-63
2021/12/04 02:48:22;;;;;;;5.53;4.25;;;;;;;;;;5112480;28;20195;-64
2021/12/04 02:50:53;;;;;;;9.23;4.22;;;;;;;;;;5112226;28;20200;-64
2021/12/04 02:53:22;;;;;;;5.20;3.60;;;;;;;;;;5112517;28;20231;-64
2021/12/04 02:55:52;;;;;;;8.43;4.97;;;;;;;;;;5112412;28;20220;-65
2021/12/04 02:58:26;;;;;;;6.30;3.10;;;;;;;;;;5112459;28;20193;-64
2021/12/04 03:00:53;;;;;;;5.18;3.70;;;;;;;;;;5112034;28;20185;-63
2021/12/04 03:03:24;;;;;;;5.90;3.97;;;;;;;;;;5112472;28;20246;-63
2021/12/04 03:05:51;;;;;;;7.43;2.97;;;;;;;;;;5112011;28;20238;-64
2021/12/04 03:08:19;;;;;;;9.43;2.53;;;;;;;;;;5112342;28;20200;-64
2021/12/04 03:10:49;;;;;;;6.40;2.30;;;;;;;;;;5111733;28;20234;-64
2021/12/04 03:13:18;;;;;;;3.00;1.90;;;;;;;;;;5112211;28;20299;-64
2021/12/04 03:15:49;;;;;;;4.68;3.50;;;;;;;;;;5112048;28;20197;-64
2021/12/04 03:18:16;;;;;;;4.30;2.30;;;;;;;;;;5111821;28;20845;-64
2021/12/04 03:20:46;;;;;;;4.00;2.67;;;;;;;;;;5112167;28;20193;-64
2021/12/04 03:23:24;;;;;;;3.25;1.67;;;;;;;;;;5111685;28;20722;-64
2021/12/04 03:25:55;;;;;;;4.25;2.05;;;;;;;;;;5112140;28;20188;-64
2021/12/04 03:28:23;;;;;;;3.97;2.33;;;;;;;;;;5112006;28;20182;-64
2021/12/04 03:30:54;;;;;;;5.43;2.13;;;;;;;;;;5112096;28;20647;-64
2021/12/04 03:41:40;;;;;;;3.17;1.90;;;;;;;;;;5116034;28;20249;-64
2021/12/04 03:44:07;;;;;;;4.63;2.10;;;;;;;;;;5114963;28;20542;-65
2021/12/04 03:46:35;;;;;;;2.85;1.60;;;;;;;;;;5115765;28;20284;-64
2021/12/04 03:49:02;;;;;;;2.60;1.65;;;;;;;;;;5115482;28;20272;-64
2021/12/04 03:51:30;;;;;;;3.80;1.63;;;;;;;;;;5115368;28;20220;-64
2021/12/04 03:53:58;;;;;;;2.88;1.65;;;;;;;;;;5115164;28;20217;-64
2021/12/04 03:56:25;;;;;;;2.95;1.80;;;;;;;;;;5114962;28;20184;-64
2021/12/04 03:58:54;;;;;;;2.30;1.30;;;;;;;;;;5114816;28;20286;-65
2021/12/04 04:01:22;;;;;;;3.40;1.48;;;;;;;;;;5115473;28;20196;-65
2021/12/04 04:03:52;;;;;;;3.80;2.13;;;;;;;;;;5115860;28;20196;-64
2021/12/04 04:06:19;;;;;;;6.50;3.00;;;;;;;;;;5115696;28;20275;-64
2021/12/04 04:08:47;;;;;;;5.38;2.20;;;;;;;;;;5115642;28;20193;-64
2021/12/04 04:11:15;;;;;;;4.13;1.73;;;;;;;;;;5115796;28;20204;-64
2021/12/04 04:13:44;;;;;;;5.70;1.75;;;;;;;;;;5115368;28;20714;-64
2021/12/04 04:16:14;;;;;;;2.53;1.30;;;;;;;;;;5115317;28;20189;-64
2021/12/04 04:18:41;;;;;;;2.67;1.23;;;;;;;;;;5115622;28;20201;-63
2021/12/04 04:21:09;;;;;;;3.55;1.48;;;;;;;;;;5115208;28;20359;-64
2021/12/04 04:23:37;;;;;;;2.20;1.35;;;;;;;;;;5115378;28;20195;-64
2021/12/04 04:26:05;;;;;;;5.20;1.52;;;;;;;;;;5115674;28;20288;-64
2021/12/04 04:28:33;;;;;;;3.13;1.98;;;;;;;;;;5115193;28;20192;-64
2021/12/04 04:31:00;;;;;;;4.07;1.92;;;;;;;;;;5115009;28;20559;-65
2021/12/04 04:33:35;;;;;;;2.58;1.77;;;;;;;;;;5094491;28;20221;-64
2021/12/04 04:36:11;;;;;;;2.30;1.50;;;;;;;;;;5111478;28;20188;-64
2021/12/04 04:38:46;;;;;;;2.50;1.40;;;;;;;;;;5114853;28;20223;-64
2021/12/04 04:58:23;;;;;;;2.75;1.30;;;;;;;;;;5114703;28;20192;-66
2021/12/04 05:01:20;;;;;;;3.05;1.55;;;;;;;;;;5113665;28;20185;-64
2021/12/04 05:12:22;;;;;;;2.10;0.90;;;;;;;;;;5114464;28;20298;-64
2021/12/04 05:14:55;;;;;;;2.35;1.10;;;;;;;;;;5113298;28;20193;-64
2021/12/04 05:17:41;;;;;;;1.90;1.00;;;;;;;;;;5114009;28;20643;-65
2021/12/04 05:20:10;;;;;;;3.22;1.10;;;;;;;;;;5114486;28;20539;-64
2021/12/04 05:22:39;;;;;;;3.17;1.30;;;;;;;;;;5114158;28;20218;-64
2021/12/04 05:25:08;;;;;;;2.17;1.20;;;;;;;;;;5113559;28;20207;-65
2021/12/04 05:27:36;;;;;;;3.47;1.05;;;;;;;;;;5113600;28;20210;-64
2021/12/04 05:30:05;;;;;;;2.03;0.93;;;;;;;;;;5113578;28;20195;-65
2021/12/04 05:32:32;;;;;;;2.78;1.35;;;;;;;;;;5093323;28;20185;-65
2021/12/04 05:35:00;;;;;;;2.70;0.98;;;;;;;;;;5093531;28;20201;-64
2021/12/04 05:37:28;;;;;;;2.20;0.95;;;;;;;;;;5112554;28;20651;-64
2021/12/04 05:39:57;;;;;;;2.60;1.45;;;;;;;;;;5113238;28;20647;-65
2021/12/04 05:42:26;;;;;;;2.25;1.30;;;;;;;;;;5112120;28;20261;-64
2021/12/04 05:44:54;;;;;;;2.55;1.48;;;;;;;;;;5113105;28;20291;-65
2021/12/04 05:47:24;;;;;;;2.55;1.10;;;;;;;;;;5113739;28;20727;-67
2021/12/04 05:49:58;;;;;;;3.67;1.63;;;;;;;;;;5113631;28;20177;-65
2021/12/04 05:52:38;;;;;;;2.33;1.00;;;;;;;;;;5107335;28;20223;-65
2021/12/04 05:55:16;;;;;;;5.07;2.10;;;;;;;;;;5111824;28;20633;-65
2021/12/04 05:57:48;;;;;;;3.30;1.40;;;;;;;;;;5106654;28;20238;-65
2021/12/04 06:00:20;;;;;;;2.40;1.60;;;;;;;;;;5112353;28;20190;-64
2021/12/04 06:02:48;;;;;;;2.83;1.55;;;;;;;;;;5113508;28;20708;-64
2021/12/04 06:05:17;;;;;;;9.73;1.50;;;;;;;;;;5112766;28;20597;-65
2021/12/04 06:07:46;;;;;;;2.85;1.40;;;;;;;;;;5113462;28;20310;-64
2021/12/04 06:10:21;;;;;;;5.78;1.40;;;;;;;;;;5112853;28;20196;-65
2021/12/04 06:12:53;;;;;;;2.25;1.27;;;;;;;;;;5108915;28;20189;-64
2021/12/04 06:15:23;;;;;;;3.08;1.25;;;;;;;;;;5113175;28;20216;-65
2021/12/04 06:17:55;;;;;;;2.65;1.45;;;;;;;;;;5113122;28;20212;-64
2021/12/04 06:23:09;;;;;;;4.63;1.55;;;;;;;;;;5111713;28;20212;-64
2021/12/04 06:25:42;;;;;;;3.08;1.75;;;;;;;;;;5112728;28;20576;-65
2021/12/04 06:28:11;;;;;;;3.33;2.00;;;;;;;;;;5112932;28;20671;-64
2021/12/04 06:30:42;;;;;;;3.03;1.90;;;;;;;;;;5112393;28;20189;-65
2021/12/04 06:33:15;;;;;;;3.08;2.05;;;;;;;;;;5109638;28;20289;-64
2021/12/04 06:35:43;;;;;;;4.20;2.20;;;;;;;;;;5113197;28;20189;-64
2021/12/04 06:38:18;;;;;;;3.85;2.90;;;;;;;;;;5112801;28;20189;-64
2021/12/04 06:40:46;;;;;;;4.22;2.60;;;;;;;;;;5112870;28;20191;-64
2021/12/04 06:43:15;;;;;;;4.88;2.95;;;;;;;;;;5112960;28;20287;-65
2021/12/04 06:45:45;;;;;;;5.80;2.25;;;;;;;;;;5096664;28;20189;-64
2021/12/04 06:48:16;;;;;;;4.40;2.70;;;;;;;;;;5090796;28;20197;-64
2021/12/04 06:50:47;;;;;;;4.05;2.75;;;;;;;;;;5108491;28;20189;-64
2021/12/04 06:53:24;;;;;;;4.45;2.45;;;;;;;;;;5112369;28;20307;-65
2021/12/04 06:55:54;;;;;;;12.93;7.70;;;;;;;;;;5111994;28;20241;-65
2021/12/04 06:58:24;;;;;;;42.38;22.40;;;;;;;;;;5112617;28;20193;-64
2021/12/04 07:00:53;;;;;;;51.13;28.52;;;;;;;;;;5111835;28;20189;-64
2021/12/04 07:03:25;;;;;;;47.90;25.80;;;;;;;;;;5112277;28;20238;-64
2021/12/04 07:05:53;;;;;;;22.52;12.60;;;;;;;;;;5103728;28;20185;-64
2021/12/04 07:08:21;;;;;;;16.10;10.85;;;;;;;;;;5093011;28;20224;-65
2021/12/04 07:10:57;;;;;;;16.38;7.63;;;;;;;;;;5112115;28;20189;-64
2021/12/04 07:13:27;;;;;;;7.05;4.85;;;;;;;;;;5113859;28;20262;-65
2021/12/04 07:16:02;;;;;;;4.85;2.40;;;;;;;;;;5116524;28;20189;-64
2021/12/04 07:18:30;;;;;;;3.35;2.47;;;;;;;;;;5116358;28;20220;-65
2021/12/04 07:21:01;;;;;;;3.28;2.08;;;;;;;;;;5116008;28;20527;-65
2021/12/04 07:23:29;;;;;;;4.72;2.25;;;;;;;;;;5116527;28;20188;-64
2021/12/04 07:25:57;;;;;;;4.90;2.72;;;;;;;;;;5115809;28;20189;-65
2021/12/04 07:28:24;;;;;;;4.07;2.40;;;;;;;;;;5115723;28;20184;-65
2021/12/04 07:30:54;;;;;;;5.43;2.83;;;;;;;;;;5116160;28;20212;-65
2021/12/04 07:33:21;;;;;;;6.35;3.88;;;;;;;;;;5115856;28;20299;-65
2021/12/04 07:35:49;;;;;;;8.00;4.47;;;;;;;;;;5116271;28;20543;-65
2021/12/04 07:38:19;;;;;;;10.95;6.65;;;;;;;;;;5116398;28;20201;-64
2021/12/04 07:40:47;;;;;;;8.52;6.28;;;;;;;;;;5116117;28;20650;-65
2021/12/04 07:43:14;;;;;;;7.10;5.07;;;;;;;;;;5115917;28;20291;-64
2021/12/04 07:45:45;;;;;;;11.05;4.95;;;;;;;;;;5115701;28;20188;-64
2021/12/04 07:48:14;;;;;;;5.30;3.42;;;;;;;;;;5115992;28;20242;-64
2021/12/04 07:50:41;;;;;;;4.30;2.90;;;;;;;;;;5115835;28;20201;-65
2021/12/04 07:53:09;;;;;;;10.07;3.60;;;;;;;;;;5115928;28;20197;-64
2021/12/04 07:55:37;;;;;;;3.70;2.20;;;;;;;;;;5115577;28;20185;-65
2021/12/04 07:58:21;;;;;;;4.20;2.60;;;;;;;;;;5115399;28;20609;-69
2021/12/04 08:00:51;;;;;;;8.80;5.80;;;;;;;;;;5115623;28;20181;-64
2021/12/04 08:03:21;;;;;;;7.20;5.40;;;;;;;;;;5115814;28;20192;-65
2021/12/04 08:05:51;;;;;;;7.80;5.90;;;;;;;;;;5115334;28;20189;-65
2021/12/04 08:08:21;;;;;;;5.40;4.82;;;;;;;;;;5115788;28;20258;-65
2021/12/04 08:10:49;;;;;;;5.32;2.80;;;;;;;;;;5114722;28;20185;-64
2021/12/04 08:13:16;;;;;;;5.95;2.50;;;;;;;;;;5115102;28;20181;-65
2021/12/04 08:15:44;;;;;;;3.00;1.70;;;;;;;;;;5104169;28;20186;-65
2021/12/04 08:18:18;;;;;;;4.07;1.60;;;;;;;;;;5101531;28;20277;-64
2021/12/04 08:20:47;;;;;;;1.90;1.20;;;;;;;;;;5099642;28;20234;-63
2021/12/04 08:23:15;;;;;;;2.20;1.30;;;;;;;;;;5108522;28;20189;-63
2021/12/04 08:25:43;;;;;;;5.40;2.40;;;;;;;;;;5112007;28;20277;-65
2021/12/04 08:28:10;;;;;;;5.18;2.70;;;;;;;;;;5094833;28;20189;-63
2021/12/04 08:30:40;;;;;;;7.40;3.53;;;;;;;;;;5094638;28;20185;-63
2021/12/04 08:33:08;;;;;;;3.92;2.00;;;;;;;;;;5094907;28;20193;-64
2021/12/04 08:35:39;;;;;;;4.50;3.17;;;;;;;;;;5094342;28;20213;-64
2021/12/04 08:38:08;;;;;;;4.72;3.63;;;;;;;;;;5094361;28;20201;-63
2021/12/04 08:40:35;;;;;;;89.22;36.25;;;;;;;;;;5094373;28;20274;-63
2021/12/04 08:43:06;;;;;;;57.03;23.75;;;;;;;;;;5094489;28;20262;-65
2021/12/04 08:45:35;;;;;;;37.75;18.13;;;;;;;;;;5094684;28;20664;-64
2021/12/04 08:48:02;;;;;;;28.38;16.55;;;;;;;;;;5101320;28;20219;-65
2021/12/04 08:50:33;;;;;;;27.80;19.58;;;;;;;;;;5106660;28;20269;-64
2021/12/04 08:53:07;;;;;;;36.30;20.00;;;;;;;;;;5093960;28;20193;-64
2021/12/04 08:55:37;;;;;;;35.78;18.83;;;;;;;;;;5094394;28;20217;-65
2021/12/04 08:58:06;;;;;;;21.45;13.02;;;;;;;;;;5112075;28;20197;-66
2021/12/04 09:00:39;;;;;;;23.23;11.95;;;;;;;;;;5110556;28;20220;-64
2021/12/04 09:03:07;;;;;;;18.38;10.55;;;;;;;;;;5094280;28;20196;-65
2021/12/04 09:05:36;;;;;;;11.75;8.25;;;;;;;;;;5096479;28;20181;-65
2021/12/04 09:08:06;;;;;;;14.50;7.45;;;;;;;;;;5093967;28;20576;-65
2021/12/04 09:10:36;;;;;;;11.43;6.80;;;;;;;;;;5096260;28;20264;-65
2021/12/04 09:13:05;;;;;;;10.55;6.15;;;;;;;;;;5093514;28;20185;-65
2021/12/04 09:15:33;;;;;;;5.72;3.20;;;;;;;;;;5097098;28;20251;-64
2021/12/04 09:18:04;;;;;;;5.43;3.05;;;;;;;;;;5111965;28;20577;-65
2021/12/04 09:20:32;;;;;;;3.85;2.85;;;;;;;;;;5111986;28;20193;-65
2021/12/04 09:23:04;;;;;;;3.88;2.70;;;;;;;;;;5099299;28;20502;-65
2021/12/04 09:25:33;;;;;;;2.95;2.30;;;;;;;;;;5093831;28;20209;-65
2021/12/04 09:28:22;;;;;;;8.40;2.78;;;;;;;;;;5093454;28;20224;-66
2021/12/04 09:36:45;;;;;;;25.40;20.25;;;;;;;;;;5092962;28;20193;-64
2021/12/04 10:01:35;;;;;;;5.00;3.10;;;;;;;;;;5097562;28;20554;-64
2021/12/04 10:04:28;;;;;;;8.88;4.30;;;;;;;;;;5105418;28;20196;-65
2021/12/04 10:24:06;;;;;;;5.38;3.25;;;;;;;;;;5107285;28;20219;-65
2021/12/04 10:34:52;;;;;;;3.60;2.20;;;;;;;;;;5092047;28;20251;-63
2021/12/04 10:37:24;;;;;;;2.60;1.73;;;;;;;;;;5092103;28;20239;-64
2021/12/04 10:39:56;;;;;;;4.80;3.38;;;;;;;;;;5092722;28;20212;-65
2021/12/04 10:42:26;;;;;;;5.10;2.58;;;;;;;;;;5092239;28;20203;-66
2021/12/04 10:44:57;;;;;;;6.40;2.83;;;;;;;;;;5100006;28;20242;-66
2021/12/04 10:47:26;;;;;;;5.80;2.75;;;;;;;;;;5099243;28;20200;-65
2021/12/04 10:50:11;;;;;;;5.82;3.10;;;;;;;;;;5095230;28;20659;-64
2021/12/04 10:52:51;;;;;;;6.22;4.13;;;;;;;;;;5074790;28;20558;-65
2021/12/04 10:55:21;;;;;;;5.10;3.53;;;;;;;;;;5075067;28;20213;-64
2021/12/04 11:00:49;;;;;;;4.90;2.75;;;;;;;;;;5079126;28;20197;-65
2021/12/04 11:03:27;;;;;;;5.50;3.63;;;;;;;;;;5077572;28;20185;-65
2021/12/04 11:23:39;;;;;;;3.28;1.70;;;;;;;;;;5087818;28;20944;-65
2021/12/04 11:37:34;;;;;;;4.90;3.25;;;;;;;;;;5072173;28;20201;-65
2021/12/04 11:40:11;;;;;;;5.20;3.20;;;;;;;;;;5071890;28;20259;-65
2021/12/04 11:42:41;;;;;;;3.92;2.60;;;;;;;;;;5087599;28;20269;-64
2021/12/04 11:45:15;;;;;;;5.03;3.33;;;;;;;;;;5085081;28;20218;-65
2021/12/04 11:47:43;;;;;;;5.57;2.97;;;;;;;;;;5077600;28;20198;-65
2021/12/04 11:50:18;;;;;;;5.57;3.42;;;;;;;;;;5071688;28;20225;-64
2021/12/04 11:52:46;;;;;;;4.60;2.90;;;;;;;;;;5093722;28;20212;-65
2021/12/04 11:55:14;;;;;;;3.47;2.25;;;;;;;;;;5092184;28;20221;-66
2021/12/04 11:57:45;;;;;;;3.45;2.35;;;;;;;;;;5094189;28;20201;-65
2021/12/04 12:00:17;;;;;;;3.25;2.55;;;;;;;;;;5094166;28;20189;-66
2021/12/04 12:02:45;;;;;;;3.55;2.08;;;;;;;;;;5095286;28;20659;-68
2021/12/04 12:05:29;;;;;;;5.65;2.40;;;;;;;;;;5104178;28;20247;-65
2021/12/04 12:07:58;;;;;;;3.65;2.33;;;;;;;;;;5096580;28;20189;-66
2021/12/04 12:10:28;;;;;;;6.00;2.83;;;;;;;;;;5095385;28;20648;-66
2021/12/04 12:13:04;;;;;;;2.55;1.70;;;;;;;;;;5105143;28;20285;-66
2021/12/04 12:15:33;;;;;;;4.10;2.25;;;;;;;;;;5101784;28;20220;-65
2021/12/04 12:18:15;;;;;;;3.60;2.17;;;;;;;;;;5095129;28;20231;-66
2021/12/04 12:20:47;;;;;;;3.67;2.08;;;;;;;;;;5096100;28;20216;-66
2021/12/04 12:23:18;;;;;;;3.58;2.35;;;;;;;;;;5094940;28;20189;-66
2021/12/04 12:26:05;;;;;;;3.20;1.90;;;;;;;;;;5108466;28;20271;-65
2021/12/04 12:37:15;;;;;;;6.43;4.25;;;;;;;;;;5035400;28;20245;-66
2021/12/04 12:39:51;;;;;;;6.18;3.95;;;;;;;;;;5047305;28;20203;-66
2021/12/04 12:42:23;;;;;;;3.70;2.67;;;;;;;;;;5049105;28;20191;-66
2021/12/04 12:44:54;;;;;;;4.03;2.00;;;;;;;;;;5044829;28;20198;-66
2021/12/04 12:47:25;;;;;;;5.63;2.67;;;;;;;;;;5111331;28;20262;-66
2021/12/04 12:50:00;;;;;;;5.18;3.08;;;;;;;;;;5101152;28;20193;-66
2021/12/04 12:52:31;;;;;;;4.80;2.75;;;;;;;;;;5108542;28;20207;-66
2021/12/04 12:55:02;;;;;;;4.60;2.25;;;;;;;;;;5094283;28;20237;-66
2021/12/04 12:57:32;;;;;;;2.60;1.40;;;;;;;;;;5107468;28;20192;-65
2021/12/04 13:11:47;;;;;;;3.05;1.58;;;;;;;;;;5094045;28;20200;-65
2021/12/04 13:14:15;;;;;;;2.92;2.08;;;;;;;;;;5109486;28;20200;-65
2021/12/04 13:16:46;;;;;;;2.58;2.13;;;;;;;;;;5111740;28;20258;-66
2021/12/04 13:19:15;;;;;;;1.70;1.15;;;;;;;;;;5111920;28;20189;-65
2021/12/04 13:21:45;;;;;;;1.85;0.98;;;;;;;;;;5111921;28;20198;-65
2021/12/04 13:24:14;;;;;;;2.63;1.10;;;;;;;;;;5111855;28;20193;-66
2021/12/04 13:26:44;;;;;;;3.20;1.80;;;;;;;;;;5093706;28;20197;-65
2021/12/04 13:29:12;;;;;;;2.05;1.20;;;;;;;;;;5093943;28;20232;-65
2021/12/04 13:31:40;;;;;;;2.78;1.20;;;;;;;;;;5093450;28;20186;-65
2021/12/04 13:34:10;;;;;;;2.05;1.15;;;;;;;;;;5093595;28;20190;-65
2021/12/04 13:36:38;;;;;;;2.13;0.90;;;;;;;;;;5094689;28;20217;-66
2021/12/04 13:39:12;;;;;;;3.63;2.00;;;;;;;;;;5093641;28;20196;-65
2021/12/04 13:41:41;;;;;;;2.97;1.65;;;;;;;;;;5100920;28;20239;-65
2021/12/04 13:44:13;;;;;;;2.60;1.83;;;;;;;;;;5094908;28;20181;-65
2021/12/04 13:46:41;;;;;;;2.63;1.80;;;;;;;;;;5104270;28;20189;-65
2021/12/04 13:49:10;;;;;;;4.60;3.03;;;;;;;;;;5097199;28;20190;-65
2021/12/04 13:51:37;;;;;;;3.75;2.50;;;;;;;;;;5110090;28;20231;-65
2021/12/04 13:54:05;;;;;;;4.60;2.92;;;;;;;;;;5111712;28;20197;-65
2021/12/04 13:56:32;;;;;;;5.28;2.80;;;;;;;;;;5110745;28;20652;-66
2021/12/04 13:59:01;;;;;;;9.30;5.82;;;;;;;;;;5111148;28;20189;-65
2021/12/04 14:01:29;;;;;;;10.50;7.45;;;;;;;;;;5111245;28;20197;-65
2021/12/04 14:03:56;;;;;;;9.52;6.30;;;;;;;;;;5093658;28;20606;-65
2021/12/04 14:06:25;;;;;;;6.80;5.35;;;;;;;;;;5110507;28;20212;-65
2021/12/04 14:08:59;;;;;;;5.60;3.70;;;;;;;;;;5111352;28;20257;-65
2021/12/04 14:11:30;;;;;;;3.78;2.95;;;;;;;;;;5110468;28;20296;-66
2021/12/04 14:13:57;;;;;;;3.42;2.42;;;;;;;;;;5096589;28;20265;-66
2021/12/04 14:16:25;;;;;;;2.45;1.73;;;;;;;;;;5095257;28;20224;-65
2021/12/04 14:18:53;;;;;;;3.70;2.28;;;;;;;;;;5092791;28;20193;-65
2021/12/04 14:21:21;;;;;;;5.03;3.22;;;;;;;;;;5108788;28;20212;-65
2021/12/04 14:23:50;;;;;;;4.65;2.63;;;;;;;;;;5099919;28;20225;-66
2021/12/04 14:26:17;;;;;;;3.92;2.20;;;;;;;;;;5095448;28;20239;-66
2021/12/04 14:28:45;;;;;;;4.70;3.10;;;;;;;;;;5094468;28;20189;-66
2021/12/04 14:31:12;;;;;;;6.03;4.10;;;;;;;;;;5092414;28;20660;-66
2021/12/04 14:33:42;;;;;;;3.80;2.50;;;;;;;;;;5092803;28;20282;-66
2021/12/04 14:36:11;;;;;;;6.45;4.05;;;;;;;;;;5093769;28;20221;-66
2021/12/04 14:38:44;;;;;;;4.00;3.03;;;;;;;;;;5109496;28;20553;-66
2021/12/04 14:41:13;;;;;;;4.60;3.53;;;;;;;;;;5094730;28;20236;-66
2021/12/04 14:43:41;;;;;;;4.05;2.80;;;;;;;;;;5096731;28;20204;-67
2021/12/04 14:46:10;;;;;;;6.95;4.38;;;;;;;;;;5109642;28;20250;-66
2021/12/04 14:48:38;;;;;;;4.20;3.17;;;;;;;;;;5096407;28;20272;-66
2021/12/04 14:51:09;;;;;;;6.72;4.93;;;;;;;;;;5100822;28;20212;-66
2021/12/04 14:53:38;;;;;;;3.92;2.58;;;;;;;;;;5102941;28;20185;-66
2021/12/04 14:56:07;;;;;;;6.57;3.88;;;;;;;;;;5102768;28;20219;-65
2021/12/04 14:58:37;;;;;;;4.80;3.55;;;;;;;;;;5097102;28;20185;-66
2021/12/04 15:01:09;;;;;;;3.83;3.13;;;;;;;;;;5095221;28;20185;-66
2021/12/04 15:03:42;;;;;;;2.70;1.67;;;;;;;;;;5100677;28;20185;-67
2021/12/04 15:06:12;;;;;;;4.32;1.83;;;;;;;;;;5092797;28;20239;-65
2021/12/04 15:08:41;;;;;;;4.63;2.20;;;;;;;;;;5093370;28;20208;-65
2021/12/04 15:11:13;;;;;;;14.73;9.30;;;;;;;;;;5101158;28;20194;-65
2021/12/04 15:13:50;;;;;;;10.13;4.45;;;;;;;;;;5110116;28;20235;-65
2021/12/04 15:16:33;;;;;;;10.48;5.38;;;;;;;;;;5095147;28;20224;-65
2021/12/04 15:19:10;;;;;;;5.70;3.42;;;;;;;;;;5091886;28;20659;-65
2021/12/04 15:21:41;;;;;;;3.55;2.38;;;;;;;;;;5107021;28;20192;-65
2021/12/04 15:24:10;;;;;;;3.65;2.17;;;;;;;;;;5104355;28;20195;-66
2021/12/04 15:26:41;;;;;;;4.60;2.33;;;;;;;;;;5100385;28;20242;-65
2021/12/04 15:29:16;;;;;;;3.40;1.75;;;;;;;;;;5107999;28;20201;-66
2021/12/04 15:31:43;;;;;;;3.45;2.47;;;;;;;;;;5101771;28;20642;-65
2021/12/04 15:34:11;;;;;;;8.13;3.80;;;;;;;;;;5103829;28;20205;-65
2021/12/04 15:36:42;;;;;;;6.60;4.00;;;;;;;;;;5111606;28;20220;-65
2021/12/04 15:39:14;;;;;;;3.15;2.05;;;;;;;;;;5108965;28;20558;-65
2021/12/04 15:41:57;;;;;;;3.63;2.20;;;;;;;;;;5105272;28;20274;-65
2021/12/04 15:44:42;;;;;;;2.92;2.45;;;;;;;;;;5110090;28;20605;-65
2021/12/04 15:47:18;;;;;;;2.50;1.63;;;;;;;;;;5110142;28;20203;-65
2021/12/04 15:49:59;;;;;;;3.13;2.10;;;;;;;;;;5105028;28;20722;-65
2021/12/04 15:52:57;;;;;;;3.13;2.72;;;;;;;;;;5096490;28;20291;-65
2021/12/04 15:55:28;;;;;;;3.00;2.20;;;;;;;;;;5089230;28;20547;-66
2021/12/04 15:57:56;;;;;;;3.55;2.63;;;;;;;;;;5086384;28;20206;-65
2021/12/04 16:00:26;;;;;;;3.97;2.85;;;;;;;;;;5086142;28;20224;-66
2021/12/04 16:02:55;;;;;;;5.75;4.72;;;;;;;;;;5086191;28;20200;-65
2021/12/04 16:05:24;;;;;;;4.20;3.33;;;;;;;;;;5087831;28;20198;-65
2021/12/04 16:07:52;;;;;;;4.00;2.53;;;;;;;;;;5090740;28;20200;-66
2021/12/04 16:10:23;;;;;;;6.22;2.63;;;;;;;;;;5089970;28;20185;-65
2021/12/04 16:12:53;;;;;;;3.83;2.08;;;;;;;;;;5088140;28;20209;-65
2021/12/04 16:15:21;;;;;;;3.30;1.42;;;;;;;;;;5088904;28;20193;-65
2021/12/04 16:17:50;;;;;;;4.15;2.20;;;;;;;;;;5087313;28;20298;-65
2021/12/04 16:20:19;;;;;;;6.28;2.15;;;;;;;;;;5089271;28;20225;-65
2021/12/04 16:22:48;;;;;;;3.25;1.67;;;;;;;;;;5088120;28;20250;-65
2021/12/04 16:25:16;;;;;;;2.47;1.55;;;;;;;;;;5088379;28;20695;-65
2021/12/04 16:27:59;;;;;;;5.82;2.05;;;;;;;;;;5085003;28;21023;-65
2021/12/04 16:30:32;;;;;;;2.60;1.50;;;;;;;;;;5086819;28;20280;-65
2021/12/04 16:33:09;;;;;;;2.83;1.55;;;;;;;;;;5086225;28;20564;-65
2021/12/04 16:35:56;;;;;;;3.20;1.77;;;;;;;;;;5085953;28;20189;-67
2021/12/04 16:38:28;;;;;;;3.00;1.60;;;;;;;;;;5086606;28;20288;-65
2021/12/04 16:40:55;;;;;;;2.67;2.35;;;;;;;;;;5090602;28;20204;-65
2021/12/04 16:43:31;;;;;;;2.75;2.45;;;;;;;;;;5086303;28;20227;-65
2021/12/04 16:46:00;;;;;;;2.80;1.90;;;;;;;;;;5087368;28;20304;-65
2021/12/04 16:48:34;;;;;;;2.45;1.77;;;;;;;;;;5089101;28;20251;-66
2021/12/04 16:56:50;;;;;;;2.20;1.15;;;;;;;;;;5107095;28;20229;-67
2021/12/04 16:59:19;;;;;;;3.25;2.10;;;;;;;;;;5109036;28;20181;-65
2021/12/04 17:01:48;;;;;;;2.85;1.30;;;;;;;;;;5106078;28;20522;-65
2021/12/04 17:04:16;;;;;;;4.82;2.55;;;;;;;;;;5109201;28;20951;-65
2021/12/04 17:06:44;;;;;;;5.15;2.97;;;;;;;;;;5106693;28;20325;-64
2021/12/04 17:09:12;;;;;;;2.92;2.10;;;;;;;;;;5105193;28;20276;-67
2021/12/04 17:11:42;;;;;;;2.75;1.80;;;;;;;;;;5107314;28;20294;-65
2021/12/04 17:14:09;;;;;;;2.67;2.35;;;;;;;;;;5103083;28;20196;-65
2021/12/04 17:16:37;;;;;;;3.05;2.03;;;;;;;;;;5105535;28;20244;-65
2021/12/04 17:19:15;;;;;;;3.75;2.45;;;;;;;;;;5106689;28;20276;-65
2021/12/04 17:21:47;;;;;;;3.10;1.80;;;;;;;;;;5102452;28;20601;-65
2021/12/04 17:24:16;;;;;;;2.90;1.70;;;;;;;;;;5101551;28;20651;-65
2021/12/04 17:26:51;;;;;;;2.80;1.77;;;;;;;;;;5089780;28;20193;-69
2021/12/04 17:29:19;;;;;;;2.20;1.38;;;;;;;;;;5097865;28;20286;-66
2021/12/04 17:31:46;;;;;;;2.40;1.27;;;;;;;;;;5099681;28;20193;-65
2021/12/04 17:34:14;;;;;;;2.85;1.55;;;;;;;;;;5105339;28;20204;-66
2021/12/04 17:36:44;;;;;;;2.63;1.40;;;;;;;;;;5099417;28;20216;-66
2021/12/04 17:39:15;;;;;;;4.63;2.08;;;;;;;;;;5104780;28;20198;-66